Time;durP1;ratioP1;P1;durP2;ratioP2;P2;SDS_P1;SDS_P2;PMS_P1;PMS_P2;Temp;Humidity;BMP_temperature;BMP_pressure;BME280_temperature;BME280_humidity;BME280_pressure;Samples;Min_cycle;Max_cycle;Signal;HPM_P1;HPM_P2
2023/03/06 00:01:02;;;;;;;37.38;2.38;;;;;;;22.13;51.57;98479.59;7313155;19;129260;-41
2023/03/06 00:03:27;;;;;;;40.60;2.45;;;;;;;22.10;51.57;98485.19;7315581;19;129077;-44
2023/03/06 00:05:57;;;;;;;39.03;2.45;;;;;;;22.07;52.50;98476.84;7314102;19;129535;-44
2023/03/06 00:08:24;;;;;;;69.07;3.70;;;;;;;22.09;52.32;98478.34;7311260;19;130530;-41
2023/03/06 00:10:49;;;;;;;65.78;3.67;;;;;;;22.06;51.99;98478.69;7313705;19;129237;-43
2023/03/06 00:13:19;;;;;;;46.37;2.87;;;;;;;22.05;52.00;98477.03;7316119;19;129372;-43
2023/03/06 00:15:46;;;;;;;60.70;3.53;;;;;;;22.04;53.06;98470.16;7314123;19;131337;-42
2023/03/06 00:18:12;;;;;;;69.00;3.92;;;;;;;21.92;51.99;98451.41;7315481;19;129588;-41
2023/03/06 00:20:41;;;;;;;33.70;2.13;;;;;;;22.00;52.47;98474.09;7314264;19;129087;-42
2023/03/06 00:23:09;;;;;;;81.03;4.63;;;;;;;22.00;52.36;98468.88;7313818;19;130537;-42
2023/03/06 00:25:37;;;;;;;68.40;3.88;;;;;;;21.98;52.33;98474.28;7312927;19;129379;-43
2023/03/06 00:28:03;;;;;;;67.53;3.75;;;;;;;21.96;52.60;98467.59;7313777;19;130268;-42
2023/03/06 00:30:29;;;;;;;55.67;3.15;;;;;;;21.96;52.38;98465.75;7312230;19;129338;-42
2023/03/06 00:32:54;;;;;;;44.50;2.73;;;;;;;21.93;52.71;98466.13;7315248;19;129078;-43
2023/03/06 00:35:20;;;;;;;47.28;2.75;;;;;;;21.92;52.97;98461.88;7314131;19;128981;-39
2023/03/06 00:37:45;;;;;;;68.40;3.85;;;;;;;21.93;52.57;98452.22;7312611;19;130510;-44
2023/03/06 00:40:14;;;;;;;48.27;2.93;;;;;;;21.93;52.50;98458.25;7313259;19;129556;-44
2023/03/06 00:42:39;;;;;;;39.97;2.35;;;;;;;21.92;52.60;98456.66;7314806;19;129007;-41
2023/03/06 00:45:05;;;;;;;131.65;8.20;;;;;;;21.92;52.41;98447.97;7313195;19;129071;-42
2023/03/06 00:47:31;;;;;;;57.03;3.17;;;;;;;21.91;53.25;98446.34;7315292;19;129783;-40
2023/03/06 00:49:56;;;;;;;37.47;2.23;;;;;;;21.89;52.72;98445.69;7313556;19;129315;-40
2023/03/06 00:52:22;;;;;;;42.30;2.63;;;;;;;21.87;53.23;98443.25;7314759;19;129105;-40
2023/03/06 00:54:47;;;;;;;52.60;3.10;;;;;;;21.85;52.68;98444.38;7313654;19;129558;-43
2023/03/06 00:57:12;;;;;;;62.45;3.65;;;;;;;21.83;52.85;98441.94;7313108;19;129349;-42
2023/03/06 00:59:38;;;;;;;40.33;2.63;;;;;;;21.83;52.63;98441.94;7312847;19;129678;-42
2023/03/06 01:02:03;;;;;;;43.88;2.50;;;;;;;21.81;53.07;98430.84;7314728;19;128893;-38
2023/03/06 01:04:29;;;;;;;41.33;2.53;;;;;;;21.81;53.09;98433.47;7314211;19;129596;-42
2023/03/06 01:06:54;;;;;;;54.50;3.15;;;;;;;21.80;53.71;98431.81;7311413;19;129251;-37
2023/03/06 01:09:20;;;;;;;47.90;2.95;;;;;;;21.78;53.54;98433.78;7312899;19;129438;-42
2023/03/06 01:11:45;;;;;;;55.08;3.15;;;;;;;21.77;53.67;98436.56;7314912;19;129598;-40
2023/03/06 01:14:11;;;;;;;55.83;3.13;;;;;;;21.77;53.74;98426.94;7313566;19;129859;-41
2023/03/06 01:16:36;;;;;;;34.03;2.00;;;;;;;21.74;53.84;98424.63;7312956;19;129158;-44
2023/03/06 01:19:01;;;;;;;38.88;2.28;;;;;;;21.77;53.17;98421.69;7312170;19;130922;-42
2023/03/06 01:21:27;;;;;;;46.17;2.83;;;;;;;21.76;53.48;98416.59;7315127;19;129478;-44
2023/03/06 01:23:52;;;;;;;71.68;4.07;;;;;;;21.75;52.89;98415.78;7312733;19;130111;-45
2023/03/06 01:26:18;;;;;;;65.45;3.70;;;;;;;21.63;54.37;98393.63;7312162;19;130256;-43
2023/03/06 01:28:43;;;;;;;38.10;2.43;;;;;;;21.74;53.12;98410.72;7313535;19;129155;-40
2023/03/06 01:31:10;;;;;;;46.05;2.75;;;;;;;21.72;53.94;98405.66;7312449;19;129001;-42
2023/03/06 01:33:36;;;;;;;40.13;2.35;;;;;;;21.72;53.23;98410.88;7313463;19;129391;-43
2023/03/06 01:36:07;;;;;;;49.28;2.92;;;;;;;21.70;54.13;98404.22;7310416;19;129955;-43
2023/03/06 01:38:34;;;;;;;37.35;2.17;;;;;;;21.68;53.54;98393.88;7313007;19;128988;-44
2023/03/06 01:41:02;;;;;;;48.75;2.72;;;;;;;21.68;53.92;98395.72;7310092;19;129669;-39
2023/03/06 01:43:31;;;;;;;67.35;3.72;;;;;;;21.67;53.60;98400.13;7312230;19;129225;-43
2023/03/06 01:46:31;;;;;;;33.83;2.10;;;;;;;21.63;54.82;98398.84;7311815;19;129346;-39
2023/03/06 01:49:19;;;;;;;61.92;3.45;;;;;;;21.62;54.66;98397.19;7311427;19;129092;-41
2023/03/06 01:52:01;;;;;;;66.90;3.65;;;;;;;21.62;54.67;98397.19;7311643;19;130200;-40
2023/03/06 01:54:34;;;;;;;45.75;2.70;;;;;;;21.63;53.69;98398.00;7312560;19;129602;-41
2023/03/06 01:57:06;;;;;;;41.53;2.42;;;;;;;21.60;53.47;98391.31;7311390;19;129485;-41
2023/03/06 01:59:34;;;;;;;11.23;0.98;;;;;;;21.61;53.52;98387.72;7312794;19;129158;-39
2023/03/06 02:02:01;;;;;;;28.25;1.80;;;;;;;21.61;54.58;98385.09;7312038;19;129576;-38
2023/03/06 02:04:28;;;;;;;52.50;3.00;;;;;;;21.60;53.65;98388.69;7311066;19;129760;-42
2023/03/06 02:06:54;;;;;;;76.22;4.10;;;;;;;21.50;53.73;98367.16;7310977;19;129353;-40
2023/03/06 02:09:19;;;;;;;73.78;4.07;;;;;;;21.60;53.96;98380.06;7309150;19;129929;-39
2023/03/06 02:11:45;;;;;;;54.70;3.13;;;;;;;21.47;53.66;98362.25;7311025;19;128803;-39
2023/03/06 02:14:13;;;;;;;65.93;3.63;;;;;;;21.56;54.42;98382.19;7312204;19;130771;-37
2023/03/06 02:16:40;;;;;;;37.03;2.00;;;;;;;21.56;54.46;98382.19;7310607;19;130346;-44
2023/03/06 02:19:16;;;;;;;38.30;2.33;;;;;;;21.54;54.82;98383.31;7312632;19;128876;-39
2023/03/06 02:21:41;;;;;;;34.15;2.03;;;;;;;21.52;53.63;98375.66;7312448;19;129621;-42
2023/03/06 02:24:06;;;;;;;49.55;2.88;;;;;;;21.54;54.22;98378.09;7310605;19;131237;-40
2023/03/06 02:26:35;;;;;;;44.65;2.35;;;;;;;21.52;54.19;98366.97;7310154;19;129807;-38
2023/03/06 02:29:00;;;;;;;99.63;5.28;;;;;;;21.53;53.82;98369.44;7309903;19;129937;-44
2023/03/06 02:31:28;;;;;;;39.13;2.45;;;;;;;21.51;54.24;98363.56;7311763;19;129300;-40
2023/03/06 02:34:06;;;;;;;52.38;3.00;;;;;;;21.51;55.74;98366.19;7311736;19;129072;-43
2023/03/06 02:36:36;;;;;;;56.20;3.08;;;;;;;21.43;54.50;98344.47;7309504;19;129610;-42
2023/03/06 02:39:02;;;;;;;46.92;2.70;;;;;;;21.50;54.38;98361.13;7311432;19;129397;-42
2023/03/06 02:41:28;;;;;;;33.70;2.13;;;;;;;21.38;54.55;98342.38;7311433;19;129363;-39
2023/03/06 02:43:53;;;;;;;40.77;2.37;;;;;;;21.48;54.58;98358.69;7310951;19;128998;-38
2023/03/06 02:46:19;;;;;;;63.55;3.60;;;;;;;21.49;54.55;98360.31;7308790;19;129705;-40
2023/03/06 02:48:44;;;;;;;43.57;2.57;;;;;;;21.48;54.23;98353.44;7310378;19;129454;-40
2023/03/06 02:51:09;;;;;;;33.33;2.15;;;;;;;21.47;54.16;98354.41;7311216;19;129272;-40
2023/03/06 02:53:35;;;;;;;43.27;2.43;;;;;;;21.46;54.78;98347.56;7310515;19;129229;-44
2023/03/06 02:56:01;;;;;;;81.68;4.38;;;;;;;21.44;54.12;98352.16;7308752;19;129575;-43
2023/03/06 02:58:26;;;;;;;41.17;2.35;;;;;;;21.44;54.81;98341.69;7312048;19;129182;-42
2023/03/06 03:00:51;;;;;;;40.13;2.45;;;;;;;21.42;54.31;98343.66;7308509;19;129580;-39
2023/03/06 03:03:17;;;;;;;45.43;2.83;;;;;;;21.44;55.22;98351.31;7310364;19;129176;-42
2023/03/06 03:05:42;;;;;;;71.63;4.03;;;;;;;21.43;55.20;98345.28;7309771;19;129421;-43
2023/03/06 03:08:08;;;;;;;72.95;4.20;;;;;;;21.43;54.28;98345.28;7309752;19;128954;-42
2023/03/06 03:10:33;;;;;;;13.73;1.13;;;;;;;21.43;54.53;98336.63;7309382;19;128952;-43
2023/03/06 03:12:58;;;;;;;52.67;2.90;;;;;;;21.38;54.78;98334.53;7310490;19;129487;-39
2023/03/06 03:15:24;;;;;;;46.50;2.57;;;;;;;21.29;54.82;98314.59;7311178;19;130822;-43
2023/03/06 03:17:50;;;;;;;45.23;2.67;;;;;;;21.38;54.59;98326.69;7310450;19;129161;-40
2023/03/06 03:20:18;;;;;;;45.13;2.78;;;;;;;21.39;54.93;98327.47;7308886;19;129472;-44
2023/03/06 03:22:51;;;;;;;90.82;4.85;;;;;;;21.39;54.93;98328.31;7307841;19;129933;-42
2023/03/06 03:25:18;;;;;;;85.07;5.18;;;;;;;21.35;54.80;98329.66;7308485;19;130284;-43
2023/03/06 03:27:43;;;;;;;48.17;2.78;;;;;;;21.34;54.81;98314.09;7310106;19;129828;-40
2023/03/06 03:30:09;;;;;;;27.05;1.67;;;;;;;21.33;54.50;98313.31;7307054;19;129220;-37
2023/03/06 03:32:35;;;;;;;43.78;2.55;;;;;;;21.23;54.95;98297.00;7310448;19;129114;-40
2023/03/06 03:35:00;;;;;;;116.90;6.82;;;;;;;21.35;55.53;98321.78;7308376;19;129760;-43
2023/03/06 03:37:26;;;;;;;34.90;2.08;;;;;;;21.33;54.98;98318.53;7310496;19;129009;-41
2023/03/06 03:39:51;;;;;;;42.75;2.40;;;;;;;21.35;54.67;98311.34;7308407;19;128911;-42
2023/03/06 03:42:16;;;;;;;58.15;3.08;;;;;;;21.24;54.61;98309.06;7308726;19;129194;-43
2023/03/06 03:44:42;;;;;;;49.50;2.73;;;;;;;21.27;54.69;98303.50;7310768;19;129625;-38
2023/03/06 03:47:07;;;;;;;35.78;2.13;;;;;;;21.19;54.61;98300.13;7308296;19;128905;-42
2023/03/06 03:49:32;;;;;;;47.70;2.67;;;;;;;21.26;55.20;98307.09;7307998;19;129003;-43
2023/03/06 03:51:58;;;;;;;58.70;3.20;;;;;;;21.24;54.58;98303.03;7308297;19;129477;-43
2023/03/06 03:54:23;;;;;;;28.02;1.77;;;;;;;21.23;55.23;98302.22;7309051;19;129690;-39
2023/03/06 03:56:48;;;;;;;66.30;3.60;;;;;;;21.24;54.67;98293.38;7307082;19;129090;-42
2023/03/06 03:59:14;;;;;;;47.55;2.53;;;;;;;21.22;55.33;98290.13;7308969;19;129119;-37
2023/03/06 04:01:39;;;;;;;71.00;3.80;;;;;;;21.24;55.27;98282.94;7308919;19;129325;-43
2023/03/06 04:04:04;;;;;;;44.57;2.53;;;;;;;21.21;55.34;98285.06;7309149;19;129870;-44
2023/03/06 04:06:30;;;;;;;8.25;0.82;;;;;;;21.19;54.88;98280.00;7307495;19;129046;-39
2023/03/06 04:08:55;;;;;;;47.58;2.72;;;;;;;21.22;55.41;98279.66;7306474;19;129631;-43
2023/03/06 04:11:21;;;;;;;56.17;3.08;;;;;;;21.21;55.18;98272.81;7309907;19;129702;-42
2023/03/06 04:13:46;;;;;;;45.08;2.70;;;;;;;21.20;54.95;98276.44;7306475;19;129611;-42
2023/03/06 04:16:12;;;;;;;51.37;2.87;;;;;;;21.16;55.71;98263.84;7306756;19;129295;-39
2023/03/06 04:18:37;;;;;;;54.92;3.00;;;;;;;21.17;55.15;98271.50;7308357;19;129005;-38
2023/03/06 04:21:03;;;;;;;56.30;3.13;;;;;;;21.15;55.34;98265.66;7307106;19;129758;-43
2023/03/06 04:23:28;;;;;;;60.40;3.28;;;;;;;21.15;55.12;98262.22;7304739;19;129219;-41
2023/03/06 04:25:54;;;;;;;87.32;4.90;;;;;;;21.06;55.12;98243.16;7306471;19;129528;-40
2023/03/06 04:28:19;;;;;;;60.30;3.25;;;;;;;21.17;55.48;98260.28;7307400;19;129047;-43
2023/03/06 04:30:45;;;;;;;49.47;2.90;;;;;;;21.19;56.32;98259.09;7307279;19;129008;-42
2023/03/06 04:33:10;;;;;;;54.13;3.17;;;;;;;21.22;55.40;98256.16;7305255;19;129833;-42
2023/03/06 04:35:36;;;;;;;52.40;3.03;;;;;;;21.30;55.59;98250.09;7312847;19;129112;-43
2023/03/06 04:38:01;;;;;;;66.53;3.43;;;;;;;21.60;54.37;98257.91;7314649;19;129348;-41
2023/03/06 04:40:31;;;;;;;41.30;2.47;;;;;;;22.07;53.33;98254.38;7313604;19;129238;-42
2023/03/06 04:42:58;;;;;;;65.32;3.50;;;;;;;22.46;51.89;98250.63;7314079;19;129198;-43
2023/03/06 04:45:24;;;;;;;45.72;2.72;;;;;;;22.81;50.56;98249.16;7312842;19;129078;-43
2023/03/06 04:47:50;;;;;;;72.75;3.75;;;;;;;23.18;49.83;98249.06;7314160;19;129387;-41
2023/03/06 04:50:17;;;;;;;55.13;2.97;;;;;;;23.53;48.50;98245.72;7313327;19;129682;-43
2023/03/06 04:52:43;;;;;;;41.90;2.50;;;;;;;23.83;48.37;98249.84;7315352;19;130313;-42
2023/03/06 04:55:11;;;;;;;77.17;4.27;;;;;;;23.94;47.40;98241.50;7311977;19;129073;-41
2023/03/06 04:57:37;;;;;;;55.25;2.95;;;;;;;24.04;47.07;98239.41;7314051;19;129761;-42
2023/03/06 05:00:04;;;;;;;;;;;;;;;24.09;46.67;98221.28;7313618;19;130357;-40
2023/03/06 05:02:30;;;;;;;47.35;2.50;;;;;;;24.20;46.56;98233.91;7314116;19;130842;-42
2023/03/06 05:04:55;;;;;;;45.93;2.73;;;;;;;24.38;46.57;98236.03;7311660;19;129714;-42
2023/03/06 05:07:21;;;;;;;101.60;5.30;;;;;;;24.44;46.39;98230.06;7312349;19;129137;-40
2023/03/06 05:09:46;;;;;;;41.33;2.30;;;;;;;24.43;46.30;98228.41;7312884;19;129557;-40
2023/03/06 05:12:11;;;;;;;51.45;2.85;;;;;;;24.48;45.94;98221.59;7315309;19;130217;-41
2023/03/06 05:14:37;;;;;;;19.60;1.40;;;;;;;24.53;46.07;98222.84;7312364;19;129549;-44
2023/03/06 05:17:02;;;;;;;60.10;3.33;;;;;;;24.58;45.83;98225.72;7311695;19;128980;-42
2023/03/06 05:19:27;;;;;;;42.75;2.20;;;;;;;24.59;45.59;98227.31;7315275;19;129117;-41
2023/03/06 05:21:53;;;;;;;41.57;2.23;;;;;;;24.71;45.50;98220.56;7313511;19;129611;-44
2023/03/06 05:24:18;;;;;;;76.50;4.10;;;;;;;24.65;46.24;98222.09;7312479;19;129148;-41
2023/03/06 05:26:43;;;;;;;57.07;2.97;;;;;;;24.70;45.93;98221.56;7311972;19;129429;-41
2023/03/06 05:29:09;;;;;;;50.80;2.67;;;;;;;24.75;45.72;98219.16;7311590;19;129664;-40
2023/03/06 05:31:34;;;;;;;36.53;2.00;;;;;;;24.77;45.36;98219.78;7309302;19;129604;-43
2023/03/06 05:33:59;;;;;;;26.27;1.67;;;;;;;24.79;45.61;98217.78;7312920;19;130016;-37
2023/03/06 05:36:25;;;;;;;52.43;2.87;;;;;;;24.79;45.91;98218.56;7310170;19;128969;-42
2023/03/06 05:38:50;;;;;;;40.17;2.33;;;;;;;24.81;45.49;98215.78;7311643;19;129563;-42
2023/03/06 05:41:16;;;;;;;44.90;2.60;;;;;;;24.83;45.83;98209.31;7312933;19;129502;-41
2023/03/06 05:43:41;;;;;;;77.63;4.10;;;;;;;24.76;45.80;98213.72;7310567;19;129970;-43
2023/03/06 05:46:09;;;;;;;57.23;3.10;;;;;;;24.80;45.55;98208.88;7307406;19;129420;-42
2023/03/06 05:48:36;;;;;;;30.50;1.75;;;;;;;24.87;45.49;98220.25;7312565;19;129075;-42
2023/03/06 05:51:03;;;;;;;38.30;2.13;;;;;;;24.82;45.94;98210.31;7309051;19;129434;-43
2023/03/06 05:53:29;;;;;;;;;;;;;;;24.84;45.89;98208.28;7312540;19;129095;-40
2023/03/06 05:55:59;;;;;;;48.80;2.80;;;;;;;24.77;45.44;98204.84;7305483;19;129629;-40
2023/03/06 05:58:26;;;;;;;61.42;3.53;;;;;;;24.70;45.93;98203.16;7312673;19;130242;-44
2023/03/06 06:00:51;;;;;;;113.35;6.40;;;;;;;24.54;46.60;98209.50;7305852;19;129268;-44
2023/03/06 06:03:18;;;;;;;151.82;8.40;;;;;;;24.38;46.45;98194.84;7286943;19;130723;-41
2023/03/06 06:05:43;;;;;;;75.10;4.10;;;;;;;24.28;47.50;98210.13;7304917;19;129534;-40
2023/03/06 06:08:09;;;;;;;77.53;4.27;;;;;;;24.16;47.23;98211.63;7307069;19;129682;-43
2023/03/06 06:10:34;;;;;;;104.90;5.87;;;;;;;24.09;47.44;98216.03;7286934;19;130777;-40
2023/03/06 06:12:59;;;;;;;54.70;2.77;;;;;;;23.95;47.52;98222.13;7298483;19;129326;-42
2023/03/06 06:15:27;;;;;;;46.90;2.63;;;;;;;23.96;47.83;98218.50;7311751;19;129870;-42
2023/03/06 06:17:53;;;;;;;44.38;2.50;;;;;;;23.91;47.56;98220.88;7313042;19;129955;-43
2023/03/06 06:20:18;;;;;;;32.27;2.10;;;;;;;23.93;48.01;98220.69;7310018;19;129996;-41
2023/03/06 06:22:44;;;;;;;62.53;3.40;;;;;;;23.84;48.00;98222.63;7308516;19;129740;-41
2023/03/06 06:25:09;;;;;;;75.27;4.00;;;;;;;23.92;47.96;98216.44;7309250;19;129127;-40
2023/03/06 06:27:34;;;;;;;34.23;2.07;;;;;;;23.85;47.79;98219.00;7311909;19;129016;-44
2023/03/06 06:30:00;;;;;;;42.77;2.50;;;;;;;24.04;47.92;98213.16;7304516;19;129607;-44
2023/03/06 06:32:25;;;;;;;54.07;3.03;;;;;;;24.05;47.89;98214.78;7311914;19;129433;-43
2023/03/06 06:34:50;;;;;;;80.00;4.73;;;;;;;24.05;48.12;98211.31;7309469;19;129794;-37
2023/03/06 06:37:16;;;;;;;56.13;3.00;;;;;;;24.04;47.92;98214.97;7308563;19;129854;-42
2023/03/06 06:39:41;;;;;;;65.63;3.20;;;;;;;24.04;47.57;98213.16;7309295;19;129315;-43
2023/03/06 06:42:08;;;;;;;59.40;3.17;;;;;;;24.05;47.92;98220.03;7311972;19;129436;-44
2023/03/06 06:44:35;;;;;;;45.45;2.60;;;;;;;24.02;47.59;98204.66;7310446;19;129737;-43
2023/03/06 06:47:02;;;;;;;49.13;2.58;;;;;;;24.24;47.29;98215.94;7308477;19;129263;-41
2023/03/06 06:49:28;;;;;;;45.78;2.45;;;;;;;24.16;47.36;98216.88;7310782;19;129296;-42
2023/03/06 06:51:53;;;;;;;56.20;3.03;;;;;;;24.19;47.60;98210.44;7311271;19;129200;-44
2023/03/06 06:54:19;;;;;;;40.83;2.23;;;;;;;24.12;47.29;98218.28;7311926;19;129316;-38
2023/03/06 06:56:44;;;;;;;31.57;1.87;;;;;;;24.08;47.94;98218.84;7309182;19;129326;-42
2023/03/06 06:59:09;;;;;;;61.87;3.43;;;;;;;23.99;47.44;98210.28;7307020;19;129813;-41
2023/03/06 07:01:35;;;;;;;43.23;2.37;;;;;;;23.78;48.39;98198.94;7311832;19;129458;-45
2023/03/06 07:04:00;;;;;;;33.87;1.90;;;;;;;23.89;48.19;98217.63;7311637;19;128808;-41
2023/03/06 07:06:25;;;;;;;30.00;1.70;;;;;;;23.67;48.76;98188.94;7307169;19;129440;-39
2023/03/06 07:08:51;;;;;;;53.80;2.87;;;;;;;23.81;48.68;98202.00;7310308;19;130585;-41
2023/03/06 07:11:17;;;;;;;53.83;2.93;;;;;;;23.80;48.63;98204.81;7312769;19;129959;-39
2023/03/06 07:13:43;;;;;;;38.00;2.20;;;;;;;23.93;48.19;98210.19;7311324;19;129452;-42
2023/03/06 07:16:09;;;;;;;35.58;2.08;;;;;;;23.88;48.22;98209.94;7309436;19;129484;-39
2023/03/06 07:18:35;;;;;;;52.17;2.73;;;;;;;23.91;48.54;98202.50;7310128;19;129521;-42
2023/03/06 07:21:00;;;;;;;47.03;2.42;;;;;;;23.97;47.87;98199.13;7308669;19;128841;-42
2023/03/06 07:23:26;;;;;;;44.20;2.43;;;;;;;23.95;47.61;98209.00;7311759;19;129833;-38
2023/03/06 07:25:52;;;;;;;69.13;3.77;;;;;;;24.08;47.76;98209.13;7308230;19;130172;-44
2023/03/06 07:28:18;;;;;;;84.25;4.63;;;;;;;24.06;47.77;98205.91;7308384;19;129617;-41
2023/03/06 07:30:43;;;;;;;38.42;2.20;;;;;;;24.17;47.54;98200.13;7307305;19;129314;-41
2023/03/06 07:33:09;;;;;;;39.83;2.17;;;;;;;24.17;48.00;98197.50;7310699;19;129299;-43
2023/03/06 07:35:34;;;;;;;62.00;3.53;;;;;;;24.23;47.53;98193.28;7308373;19;129566;-44
2023/03/06 07:38:00;;;;;;;52.28;2.75;;;;;;;24.26;47.44;98195.56;7310346;19;129626;-43
2023/03/06 07:40:26;;;;;;;31.33;1.67;;;;;;;24.18;47.55;98199.13;7308299;19;128861;-40
2023/03/06 07:42:56;;;;;;;51.53;2.85;;;;;;;24.14;47.36;98197.91;7310099;19;129389;-42
2023/03/06 07:45:23;;;;;;;43.63;2.47;;;;;;;23.98;47.77;98192.88;7309122;19;130201;-39
2023/03/06 07:47:49;;;;;;;69.28;3.42;;;;;;;23.95;48.21;98188.00;7308145;19;129239;-40
2023/03/06 07:50:15;;;;;;;;;;;;;;;23.82;48.00;98192.31;7308899;19;128997;-42
2023/03/06 07:52:40;;;;;;;52.00;2.80;;;;;;;23.82;48.90;98193.13;7309465;19;129836;-40
2023/03/06 07:55:06;;;;;;;110.00;6.60;;;;;;;23.68;48.30;98180.88;7308487;19;129285;-42
2023/03/06 07:57:31;;;;;;;63.10;3.30;;;;;;;23.82;48.93;98201.00;7308671;19;130374;-40
2023/03/06 07:59:57;;;;;;;39.95;2.25;;;;;;;23.82;48.24;98203.63;7308426;19;129985;-39
2023/03/06 08:02:23;;;;;;;48.47;2.77;;;;;;;23.86;48.12;98197.00;7310012;19;129163;-44
2023/03/06 08:04:55;;;;;;;48.93;2.70;;;;;;;23.90;48.16;98194.81;7309633;19;129534;-44
2023/03/06 08:07:20;;;;;;;60.60;3.17;;;;;;;23.89;48.71;98198.44;7308424;19;130014;-43
2023/03/06 08:09:49;;;;;;;122.13;6.82;;;;;;;23.96;48.54;98202.75;7308201;19;129553;-42
2023/03/06 08:12:15;;;;;;;56.87;3.17;;;;;;;24.05;47.57;98204.28;7315530;19;129164;-37
2023/03/06 08:14:40;;;;;;;42.90;2.40;;;;;;;23.99;48.34;98184.03;7315290;19;130675;-43
2023/03/06 08:17:06;;;;;;;55.35;2.88;;;;;;;24.06;48.32;98203.28;7314655;19;129280;-38
2023/03/06 08:19:31;;;;;;;32.42;1.83;;;;;;;24.18;47.67;98198.34;7316770;19;129349;-42
2023/03/06 08:21:57;;;;;;;38.72;2.10;;;;;;;24.15;47.89;98201.31;7315827;19;129108;-39
2023/03/06 08:24:23;;;;;;;50.00;2.67;;;;;;;24.25;47.94;98197.38;7315349;19;129216;-42
2023/03/06 08:26:48;;;;;;;71.30;3.80;;;;;;;24.24;47.25;98195.75;7313858;19;130498;-38
2023/03/06 08:29:14;;;;;;;53.97;3.07;;;;;;;24.17;48.03;98188.81;7315788;19;128957;-42
2023/03/06 08:31:43;;;;;;;56.63;3.00;;;;;;;24.07;47.28;98186.50;7316003;19;129882;-41
2023/03/06 08:34:14;;;;;;;40.22;2.13;;;;;;;24.03;48.02;98203.63;7316289;19;129895;-41
2023/03/06 08:36:40;;;;;;;72.40;3.67;;;;;;;23.90;48.31;98214.00;7313442;19;129251;-43
2023/03/06 08:39:06;;;;;;;30.40;1.77;;;;;;;23.82;48.48;98214.13;7315162;19;129149;-42
2023/03/06 08:41:33;;;;;;;36.22;1.92;;;;;;;23.85;48.55;98215.56;7315162;19;128701;-42
2023/03/06 08:43:59;;;;;;;38.95;2.10;;;;;;;23.83;48.13;98215.72;7314396;19;129222;-43
2023/03/06 08:46:27;;;;;;;64.20;3.20;;;;;;;23.85;48.36;98200.63;7313160;19;129344;-40
2023/03/06 08:48:52;;;;;;;49.47;2.75;;;;;;;23.82;48.36;98208.88;7316073;19;128931;-38
2023/03/06 08:51:19;;;;;;;77.03;4.33;;;;;;;23.85;48.72;98211.13;7311378;19;131420;-39
2023/03/06 08:53:45;;;;;;;;;;;;;;;23.75;48.72;98194.88;7314462;19;129572;-43
2023/03/06 08:56:19;;;;;;;55.90;2.75;;;;;;;23.93;48.56;98210.97;7312241;19;129698;-43
2023/03/06 08:58:45;;;;;;;45.13;2.47;;;;;;;23.91;48.28;98205.13;7315706;19;129039;-40
2023/03/06 09:01:26;;;;;;;58.63;2.97;;;;;;;24.00;48.75;98206.66;7313885;19;129293;-41
2023/03/06 09:03:57;;;;;;;42.58;2.30;;;;;;;24.09;47.92;98205.53;7312267;19;130246;-38
2023/03/06 09:06:23;;;;;;;71.22;3.88;;;;;;;24.14;48.65;98212.84;7310806;19;131029;-39
2023/03/06 09:08:52;;;;;;;64.63;3.30;;;;;;;24.22;48.00;98210.06;7312997;19;129274;-41
2023/03/06 09:11:19;;;;;;;61.67;3.38;;;;;;;24.25;47.74;98210.50;7311370;19;129084;-41
2023/03/06 09:13:44;;;;;;;37.97;2.05;;;;;;;24.27;47.95;98205.88;7314325;19;129636;-45
2023/03/06 09:16:10;;;;;;;39.63;2.20;;;;;;;24.19;48.12;98215.69;7312047;19;129107;-44
2023/03/06 09:18:36;;;;;;;47.22;2.40;;;;;;;24.15;47.58;98212.63;7313207;19;130638;-41
2023/03/06 09:21:02;;;;;;;39.17;2.13;;;;;;;24.05;48.53;98209.53;7308217;19;129152;-40
2023/03/06 09:23:28;;;;;;;18.23;1.33;;;;;;;24.00;48.24;98211.06;7313158;19;129606;-38
2023/03/06 09:25:56;;;;;;;30.87;1.73;;;;;;;23.75;48.44;98192.25;7312974;19;129227;-42
2023/03/06 09:28:21;;;;;;;141.25;7.47;;;;;;;23.75;48.38;98194.06;7311878;19;129781;-43
2023/03/06 09:30:47;;;;;;;37.60;2.30;;;;;;;23.85;48.71;98208.50;7311667;19;129352;-38
2023/03/06 09:33:13;;;;;;;76.03;3.93;;;;;;;23.80;49.22;98210.88;7313327;19;129021;-41
2023/03/06 09:35:51;;;;;;;49.85;2.78;;;;;;;23.83;48.96;98209.69;7309657;19;131470;-41
2023/03/06 09:38:17;;;;;;;40.15;2.30;;;;;;;23.86;48.70;98201.44;7312984;19;129158;-40
2023/03/06 09:41:02;;;;;;;51.83;2.78;;;;;;;23.84;48.73;98203.44;7310340;19;129453;-42
2023/03/06 09:43:38;;;;;;;44.65;2.40;;;;;;;23.90;48.34;98200.88;7314179;19;130235;-40
2023/03/06 09:46:23;;;;;;;42.08;2.28;;;;;;;23.94;48.92;98201.31;7310473;19;129318;-41
2023/03/06 09:49:09;;;;;;;42.78;2.47;;;;;;;23.97;48.62;98199.13;7313478;19;129106;-40
2023/03/06 09:51:49;;;;;;;31.17;1.75;;;;;;;23.99;48.41;98191.91;7313613;19;129151;-41
2023/03/06 09:54:15;;;;;;;79.05;4.55;;;;;;;24.13;47.82;98196.25;7311641;19;130022;-39
2023/03/06 09:56:49;;;;;;;35.53;2.17;;;;;;;24.07;48.17;98194.41;7311862;19;131055;-43
2023/03/06 09:59:23;;;;;;;47.92;2.63;;;;;;;23.97;48.50;98175.50;7312892;19;129386;-39
2023/03/06 10:02:08;;;;;;;62.65;3.22;;;;;;;24.07;47.93;98194.41;7313534;19;128907;-40
2023/03/06 10:04:41;;;;;;;72.35;3.88;;;;;;;23.97;48.67;98180.75;7310640;19;128999;-46
2023/03/06 10:07:13;;;;;;;29.45;1.58;;;;;;;23.90;48.93;98179.06;7311775;19;129603;-37
2023/03/06 10:10:14;;;;;;;71.45;4.00;;;;;;;23.75;49.21;98181.75;7312289;19;129540;-42
2023/03/06 10:12:48;;;;;;;38.85;2.10;;;;;;;23.76;48.79;98183.38;7311945;19;129290;-42
2023/03/06 10:15:19;;;;;;;96.43;5.60;;;;;;;23.59;49.00;98166.25;7310958;19;129782;-40
2023/03/06 10:17:44;;;;;;;36.28;2.15;;;;;;;23.69;49.59;98182.50;7312216;19;129809;-42
2023/03/06 10:20:18;;;;;;;50.77;2.77;;;;;;;23.67;49.03;98181.88;7311645;19;130826;-39
2023/03/06 10:23:09;;;;;;;104.82;5.47;;;;;;;23.77;49.21;98171.06;7312075;19;130025;-40
2023/03/06 10:25:52;;;;;;;68.72;3.67;;;;;;;23.72;49.14;98174.25;7309857;19;130091;-41
2023/03/06 10:28:23;;;;;;;81.35;4.30;;;;;;;23.73;48.96;98178.53;7312521;19;129416;-43
2023/03/06 10:31:13;;;;;;;40.55;2.30;;;;;;;23.82;49.04;98174.75;7308681;19;129154;-44
2023/03/06 10:34:21;;;;;;;37.40;2.17;;;;;;;23.87;48.61;98169.75;7313595;19;129189;-38
2023/03/06 10:36:47;;;;;;;62.70;3.22;;;;;;;23.95;49.22;98174.88;7308593;19;130641;-39
2023/03/06 10:39:20;;;;;;;41.83;2.33;;;;;;;23.96;48.30;98176.50;7312267;19;129155;-42
2023/03/06 10:41:48;;;;;;;35.40;2.05;;;;;;;24.16;48.26;98180.09;7311429;19;129456;-43
2023/03/06 10:44:13;;;;;;;57.70;3.10;;;;;;;24.03;48.03;98179.22;7308624;19;129715;-39
2023/03/06 10:46:43;;;;;;;53.53;2.77;;;;;;;23.96;48.29;98181.75;7309405;19;129104;-43
2023/03/06 10:49:35;;;;;;;34.13;2.03;;;;;;;23.87;48.70;98175.00;7309675;19;129550;-41
2023/03/06 10:52:19;;;;;;;34.08;1.92;;;;;;;23.80;48.94;98183.81;7312030;19;129447;-43
2023/03/06 10:54:47;;;;;;;58.92;3.45;;;;;;;23.65;49.33;98183.06;7311942;19;129594;-40
2023/03/06 10:57:38;;;;;;;53.13;2.75;;;;;;;23.62;49.26;98186.88;7310550;19;129384;-42
2023/03/06 11:00:21;;;;;;;37.47;2.15;;;;;;;23.60;49.78;98172.31;7309767;19;129525;-39
2023/03/06 11:03:04;;;;;;;45.80;2.55;;;;;;;23.65;49.46;98178.63;7311319;19;129180;-42
2023/03/06 11:05:29;;;;;;;28.08;1.58;;;;;;;23.62;49.71;98181.63;7311059;19;128815;-40
2023/03/06 11:08:00;;;;;;;37.73;2.23;;;;;;;23.66;49.39;98177.63;7308671;19;129302;-44
2023/03/06 11:10:28;;;;;;;41.92;2.28;;;;;;;23.75;49.61;98181.75;7309344;19;130258;-43
2023/03/06 11:13:05;;;;;;;77.38;4.03;;;;;;;23.71;49.13;98158.69;7310426;19;129916;-41
2023/03/06 11:15:30;;;;;;;51.42;2.83;;;;;;;23.83;49.48;98172.94;7309090;19;129149;-39
2023/03/06 11:17:57;;;;;;;37.70;2.03;;;;;;;23.91;49.26;98173.63;7310350;19;129493;-41
2023/03/06 11:20:39;;;;;;;52.28;2.83;;;;;;;23.95;49.00;98180.13;7306650;19;129917;-40